createdAt,value
2018-05-09T00:00:03.687Z,98.60
2018-05-09T00:02:32.712Z,99.20
2018-05-09T00:05:00.963Z,99.20
2018-05-09T00:07:29.211Z,99.70
2018-05-09T00:09:58.237Z,99.90
2018-05-09T00:12:27.266Z,99.90
2018-05-09T00:14:55.529Z,99.90
2018-05-09T00:17:23.767Z,99.90
2018-05-09T00:19:52.798Z,99.90
2018-05-09T00:22:21.054Z,99.90
2018-05-09T00:24:49.297Z,99.90
2018-05-09T00:27:19.050Z,99.90
2018-05-09T00:29:47.301Z,99.90
2018-05-09T00:32:16.339Z,99.90
2018-05-09T00:34:44.587Z,99.90
2018-05-09T00:37:12.826Z,99.90
2018-05-09T00:39:41.082Z,99.90
2018-05-09T00:42:09.320Z,99.90
2018-05-09T00:44:37.568Z,99.90
2018-05-09T00:47:06.613Z,99.90
2018-05-09T00:49:34.856Z,99.90
2018-05-09T00:52:03.102Z,99.90
2018-05-09T00:54:33.242Z,99.90
2018-05-09T00:57:02.280Z,99.90
2018-05-09T00:59:30.534Z,99.90
2018-05-09T01:01:59.543Z,99.90
2018-05-09T01:04:27.811Z,99.90
2018-05-09T01:06:56.050Z,99.90
2018-05-09T01:09:25.071Z,99.90
2018-05-09T01:11:54.106Z,99.90
2018-05-09T01:14:22.361Z,99.90
2018-05-09T01:16:50.605Z,99.90
2018-05-09T01:19:18.877Z,99.90
2018-05-09T01:21:47.901Z,99.90
2018-05-09T01:24:16.150Z,99.90
2018-05-09T01:26:44.409Z,99.90
2018-05-09T01:29:14.478Z,99.90
2018-05-09T01:31:42.734Z,99.90
2018-05-09T01:34:11.025Z,99.90
2018-05-09T01:36:39.271Z,99.90
2018-05-09T01:39:07.539Z,99.90
2018-05-09T01:41:36.596Z,99.90
2018-05-09T01:44:04.862Z,99.90
2018-05-09T01:46:33.157Z,99.90
2018-05-09T01:49:01.417Z,99.90
2018-05-09T01:51:29.701Z,99.90
2018-05-09T01:53:57.966Z,99.90
2018-05-09T01:56:26.232Z,99.90
2018-05-09T01:58:55.248Z,99.90
2018-05-09T02:01:23.502Z,99.90
2018-05-09T02:03:52.535Z,99.90
2018-05-09T02:06:20.783Z,99.90
2018-05-09T02:08:49.026Z,99.90
2018-05-09T02:11:17.302Z,99.90
2018-05-09T02:13:45.574Z,99.90
2018-05-09T02:16:13.831Z,99.90
2018-05-09T02:18:42.848Z,99.90
2018-05-09T02:21:11.104Z,99.90
2018-05-09T02:23:40.119Z,99.90
2018-05-09T02:26:08.385Z,99.90
2018-05-09T02:28:36.697Z,99.90
2018-05-09T02:31:04.967Z,99.90
2018-05-09T02:33:33.204Z,99.90
2018-05-09T02:36:02.223Z,99.90
2018-05-09T02:38:30.468Z,99.90
2018-05-09T02:40:59.474Z,99.90
2018-05-09T02:43:27.762Z,99.90
2018-05-09T02:45:56.018Z,99.90
2018-05-09T02:48:25.026Z,99.90
2018-05-09T02:50:53.274Z,99.90
2018-05-09T02:53:22.427Z,99.90
2018-05-09T02:55:50.672Z,99.90
2018-05-09T02:58:18.923Z,99.90
2018-05-09T03:00:47.944Z,99.90
2018-05-09T03:03:16.217Z,99.90
2018-05-09T03:05:44.457Z,99.90
2018-05-09T03:08:13.481Z,99.90
2018-05-09T03:10:41.749Z,99.90
2018-05-09T03:13:10.823Z,99.90
2018-05-09T03:15:39.089Z,99.90
2018-05-09T03:18:07.332Z,99.90
2018-05-09T03:20:35.628Z,99.90
2018-05-09T03:23:03.861Z,99.90
2018-05-09T03:25:32.121Z,99.90
2018-05-09T03:28:01.137Z,99.90
2018-05-09T03:30:29.390Z,99.90
2018-05-09T03:32:58.401Z,99.90
2018-05-09T03:35:26.655Z,99.90
2018-05-09T03:37:55.678Z,99.90
2018-05-09T03:40:23.929Z,99.90
2018-05-09T03:42:52.206Z,99.90
2018-05-09T03:45:20.475Z,99.90
2018-05-09T03:47:49.512Z,99.90
2018-05-09T03:50:17.776Z,99.90
2018-05-09T03:52:46.036Z,99.90
2018-05-09T03:55:14.295Z,99.90
2018-05-09T03:57:43.321Z,99.90
2018-05-09T04:00:11.592Z,99.90
2018-05-09T04:02:51.976Z,99.90
2018-05-09T04:05:32.053Z,99.90
2018-05-09T04:08:12.480Z,99.90
2018-05-09T04:10:41.704Z,99.90
2018-05-09T04:13:10.045Z,99.90
2018-05-09T04:15:38.238Z,99.90
2018-05-09T04:18:06.482Z,99.90
2018-05-09T04:20:34.759Z,99.90
2018-05-09T04:23:03.753Z,99.90
2018-05-09T04:25:32.008Z,99.90
2018-05-09T04:28:01.066Z,99.90
2018-05-09T04:30:29.325Z,99.90
2018-05-09T04:32:57.596Z,99.90
2018-05-09T04:35:25.895Z,99.90
2018-05-09T04:37:54.182Z,99.90
2018-05-09T04:40:22.451Z,99.90
2018-05-09T04:42:50.728Z,99.90
2018-05-09T04:45:19.813Z,99.90
2018-05-09T04:47:48.077Z,99.90
2018-05-09T04:50:16.335Z,99.90
2018-05-09T04:52:44.834Z,99.90
2018-05-09T04:55:13.092Z,99.90
2018-05-09T04:57:41.375Z,99.90
2018-05-09T05:00:09.651Z,99.90
2018-05-09T05:02:37.923Z,99.90
2018-05-09T05:05:06.198Z,99.90
2018-05-09T05:07:34.520Z,99.90
2018-05-09T05:10:02.946Z,99.90
2018-05-09T05:12:31.197Z,99.90
2018-05-09T05:15:01.009Z,99.90
2018-05-09T05:17:30.153Z,99.90
2018-05-09T05:19:58.566Z,99.90
2018-05-09T05:22:26.826Z,99.90
2018-05-09T05:24:55.135Z,99.90
2018-05-09T05:27:23.382Z,99.90
2018-05-09T05:29:51.637Z,99.90
2018-05-09T05:32:19.925Z,99.90
2018-05-09T05:34:48.234Z,99.90
2018-05-09T05:37:17.257Z,99.90
2018-05-09T05:39:45.579Z,99.90
2018-05-09T05:42:13.843Z,99.90
2018-05-09T05:44:42.122Z,99.90
2018-05-09T05:47:10.374Z,99.90
2018-05-09T05:49:38.612Z,99.90
2018-05-09T05:52:08.598Z,99.90
2018-05-09T05:54:36.846Z,99.90
2018-05-09T05:57:05.094Z,99.90
2018-05-09T05:59:33.367Z,99.90
2018-05-09T06:02:02.378Z,99.90
2018-05-09T06:04:30.656Z,99.90
2018-05-09T06:18:25.112Z,99.10
2018-05-09T06:20:53.371Z,99.70
2018-05-09T06:23:22.652Z,99.90
2018-05-09T06:25:50.899Z,99.80
2018-05-09T06:28:19.150Z,99.90
2018-05-09T06:30:47.675Z,99.70
2018-05-09T06:33:15.952Z,99.70
2018-05-09T06:35:44.202Z,99.70
2018-05-09T06:38:12.460Z,99.40
2018-05-09T06:40:40.752Z,98.50
2018-05-09T06:43:09.014Z,97.10
2018-05-09T06:45:37.269Z,96.50
2018-05-09T06:48:05.526Z,95.60
2018-05-09T06:50:34.561Z,94.10
2018-05-09T06:53:02.818Z,94.00
2018-05-09T06:55:31.193Z,93.40
2018-05-09T06:57:59.444Z,93.00
2018-05-09T07:00:28.461Z,90.20
2018-05-09T07:02:56.773Z,90.30
2018-05-09T07:05:25.039Z,90.60
2018-05-09T07:07:53.340Z,91.20
2018-05-09T07:10:21.610Z,92.00
2018-05-09T07:12:49.851Z,91.90
2018-05-09T07:15:18.114Z,93.10
2018-05-09T07:17:46.382Z,91.40
2018-05-09T07:20:14.632Z,90.10
2018-05-09T07:22:42.878Z,88.20
2018-05-09T07:25:11.126Z,87.30
2018-05-09T07:27:39.396Z,85.70
2018-05-09T07:30:07.685Z,85.10
2018-05-09T07:32:35.947Z,82.70
2018-05-09T07:35:04.954Z,81.60
2018-05-09T07:37:33.195Z,81.70
2018-05-09T07:40:02.259Z,82.60
2018-05-09T07:42:31.011Z,82.40
2018-05-09T07:44:59.283Z,80.70
2018-05-09T07:47:27.623Z,80.00
2018-05-09T07:49:55.877Z,82.70
2018-05-09T07:52:24.136Z,82.00
2018-05-09T07:54:52.400Z,81.20
2018-05-09T07:57:20.708Z,82.10
2018-05-09T07:59:49.007Z,80.10
2018-05-09T08:02:17.263Z,78.10
2018-05-09T08:04:45.536Z,77.60
2018-05-09T08:07:13.793Z,76.30
2018-05-09T08:09:42.061Z,76.10
2018-05-09T08:12:10.321Z,77.10
2018-05-09T08:14:38.652Z,77.10
2018-05-09T08:17:06.908Z,74.50
2018-05-09T08:19:35.168Z,73.80
2018-05-09T08:22:04.156Z,73.80
2018-05-09T08:24:32.404Z,69.50
2018-05-09T08:27:00.649Z,68.50
2018-05-09T08:29:29.665Z,63.20
2018-05-09T08:31:57.930Z,63.20
2018-05-09T08:34:26.994Z,64.90
2018-05-09T08:36:55.239Z,64.70
2018-05-09T08:39:23.529Z,62.70
2018-05-09T08:41:51.818Z,62.30
2018-05-09T08:44:20.180Z,65.40
2018-05-09T08:46:48.429Z,63.70
2018-05-09T08:49:16.823Z,64.00
2018-05-09T08:51:45.023Z,66.00
2018-05-09T08:54:13.279Z,64.60
2018-05-09T08:56:41.554Z,65.50
2018-05-09T08:59:09.811Z,63.50
2018-05-09T09:01:38.085Z,63.30
2018-05-09T09:04:06.352Z,62.00
2018-05-09T09:06:34.613Z,59.40
2018-05-09T09:09:03.667Z,58.00
2018-05-09T09:11:32.027Z,58.00
2018-05-09T09:14:00.276Z,55.00
2018-05-09T09:16:28.511Z,55.60
2018-05-09T09:18:58.336Z,54.00
2018-05-09T09:21:27.344Z,50.70
2018-05-09T09:23:55.618Z,50.70
2018-05-09T09:26:23.962Z,52.40
2018-05-09T09:28:52.295Z,51.80
2018-05-09T09:31:20.547Z,53.00
2018-05-09T09:33:48.827Z,52.80
2018-05-09T09:36:17.095Z,51.00
2018-05-09T09:38:45.363Z,48.70
2018-05-09T09:41:13.673Z,46.30
2018-05-09T09:43:42.691Z,50.50
2018-05-09T09:46:10.975Z,50.00
2018-05-09T09:48:39.232Z,49.50
2018-05-09T09:51:07.500Z,48.30
2018-05-09T09:53:35.789Z,48.10
2018-05-09T09:56:04.182Z,45.40
2018-05-09T09:58:32.458Z,49.30
2018-05-09T10:01:00.737Z,50.30
2018-05-09T10:03:29.003Z,49.90
2018-05-09T10:05:57.260Z,49.10
2018-05-09T10:08:25.560Z,48.90
2018-05-09T10:10:53.857Z,48.80
2018-05-09T10:13:22.929Z,51.80
2018-05-09T10:15:51.190Z,52.10
2018-05-09T10:18:19.474Z,48.00
2018-05-09T10:20:47.724Z,47.20
2018-05-09T10:23:16.072Z,48.20
2018-05-09T10:25:45.052Z,47.90
2018-05-09T10:28:14.184Z,46.90
2018-05-09T10:30:42.453Z,46.90
2018-05-09T10:33:10.768Z,44.50
2018-05-09T10:35:39.005Z,45.40
2018-05-09T10:38:07.736Z,46.10
2018-05-09T10:40:36.770Z,44.40
2018-05-09T10:43:05.014Z,44.40
2018-05-09T10:45:34.060Z,41.50
2018-05-09T10:48:02.342Z,41.50
2018-05-09T10:50:30.593Z,40.80
2018-05-09T10:52:58.849Z,42.70
2018-05-09T10:55:27.161Z,43.40
2018-05-09T10:57:55.465Z,44.80
2018-05-09T11:00:24.488Z,44.40
2018-05-09T11:02:53.497Z,43.20
2018-05-09T11:05:21.797Z,42.70
2018-05-09T11:07:50.115Z,43.60
2018-05-09T11:10:18.490Z,45.60
2018-05-09T11:12:46.758Z,45.70
2018-05-09T11:15:15.099Z,47.30
2018-05-09T11:17:43.365Z,48.60
2018-05-09T11:20:11.620Z,49.50
2018-05-09T11:22:40.031Z,48.70
2018-05-09T11:25:08.298Z,49.00
2018-05-09T11:27:36.576Z,48.00
2018-05-09T11:30:04.829Z,46.40
2018-05-09T11:32:33.094Z,43.50
2018-05-09T11:35:02.113Z,44.50
2018-05-09T11:37:30.502Z,44.50
2018-05-09T11:39:58.784Z,46.60
2018-05-09T11:42:27.060Z,47.00
2018-05-09T11:44:55.374Z,49.00
2018-05-09T11:47:23.648Z,50.00
2018-05-09T11:49:51.990Z,49.50
2018-05-09T11:52:20.479Z,47.20
2018-05-09T11:54:48.723Z,44.90
2018-05-09T11:57:16.990Z,46.00
2018-05-09T11:59:45.221Z,45.50
2018-05-09T12:02:13.505Z,43.70
2018-05-09T12:04:41.799Z,44.00
2018-05-09T12:07:10.082Z,43.90
2018-05-09T12:09:38.428Z,44.40
2018-05-09T12:12:06.716Z,42.60
2018-05-09T12:14:35.721Z,42.40
2018-05-09T12:17:04.741Z,44.90
2018-05-09T12:19:33.080Z,44.80
2018-05-09T12:22:01.409Z,45.40
2018-05-09T12:24:29.662Z,47.80
2018-05-09T12:26:57.941Z,50.00
2018-05-09T12:29:26.244Z,46.70
2018-05-09T12:31:54.531Z,43.10
2018-05-09T12:34:23.640Z,44.90
2018-05-09T12:36:51.927Z,44.90
2018-05-09T12:39:20.185Z,43.40
2018-05-09T12:41:49.209Z,43.70
2018-05-09T12:44:18.246Z,43.10
2018-05-09T12:46:46.511Z,43.10
2018-05-09T12:49:14.750Z,42.70
2018-05-09T12:51:43.785Z,42.20
2018-05-09T12:54:12.038Z,42.30
2018-05-09T12:56:40.370Z,42.20
2018-05-09T12:59:08.731Z,41.70
2018-05-09T13:01:37.010Z,42.60
2018-05-09T13:04:05.412Z,42.00
2018-05-09T13:06:33.679Z,41.10
2018-05-09T13:09:01.920Z,41.10
2018-05-09T13:11:30.191Z,41.60
2018-05-09T13:13:58.485Z,42.40
2018-05-09T13:16:26.728Z,42.20
2018-05-09T13:18:55.002Z,41.80
2018-05-09T13:21:23.263Z,40.70
2018-05-09T13:23:52.286Z,41.60
2018-05-09T13:26:20.525Z,41.60
2018-05-09T13:28:49.563Z,39.50
2018-05-09T13:31:17.854Z,39.50
2018-05-09T13:33:46.091Z,40.10
2018-05-09T13:36:14.375Z,39.70
2018-05-09T13:38:42.684Z,39.90
2018-05-09T13:41:10.931Z,40.80
2018-05-09T13:43:39.239Z,40.30
2018-05-09T13:46:07.644Z,40.20
2018-05-09T13:48:35.917Z,40.20
2018-05-09T13:51:04.954Z,41.00
2018-05-09T13:53:33.241Z,40.30
2018-05-09T13:56:01.522Z,39.30
2018-05-09T13:58:29.810Z,38.80
2018-05-09T14:00:58.070Z,39.60
2018-05-09T14:03:26.263Z,41.30
2018-05-09T14:05:54.461Z,43.50
2018-05-09T14:08:23.512Z,43.70
2018-05-09T14:10:51.767Z,43.60
2018-05-09T14:13:20.060Z,44.00
2018-05-09T14:15:48.300Z,42.80
2018-05-09T14:18:18.173Z,40.60
2018-05-09T14:20:46.421Z,40.50
2018-05-09T14:23:14.739Z,38.90
2018-05-09T14:25:43.012Z,38.60
2018-05-09T14:28:11.280Z,38.10
2018-05-09T14:30:39.586Z,38.50
2018-05-09T14:33:08.601Z,38.20
2018-05-09T14:35:36.854Z,38.20
2018-05-09T14:38:05.903Z,36.60
2018-05-09T14:40:34.153Z,36.70
2018-05-09T14:43:02.449Z,36.90
2018-05-09T14:45:30.768Z,37.10
2018-05-09T14:47:59.091Z,37.20
2018-05-09T14:50:27.347Z,38.80
2018-05-09T14:52:55.601Z,40.60
2018-05-09T14:55:23.904Z,41.30
2018-05-09T14:57:52.927Z,42.30
2018-05-09T15:00:21.270Z,42.20
2018-05-09T15:02:50.410Z,43.40
2018-05-09T15:05:18.751Z,43.90
2018-05-09T15:07:47.005Z,43.00
2018-05-09T15:10:16.035Z,42.00
2018-05-09T15:12:44.306Z,42.00
2018-05-09T15:15:12.551Z,42.50
2018-05-09T15:17:41.573Z,41.60
2018-05-09T15:20:09.882Z,41.60
2018-05-09T15:22:38.163Z,42.00
2018-05-09T15:25:06.450Z,39.80
2018-05-09T15:27:34.827Z,40.30
2018-05-09T15:30:03.099Z,41.50
2018-05-09T15:32:31.470Z,41.20
2018-05-09T15:34:59.718Z,40.60
2018-05-09T15:37:27.986Z,40.70
2018-05-09T15:39:56.242Z,40.60
2018-05-09T15:42:25.253Z,42.50
2018-05-09T15:44:53.707Z,42.50
2018-05-09T15:47:21.939Z,41.70
2018-05-09T15:49:50.196Z,41.40
2018-05-09T15:52:19.216Z,40.90
2018-05-09T15:54:47.522Z,40.90
2018-05-09T15:57:15.797Z,40.90
2018-05-09T15:59:44.098Z,41.00
2018-05-09T16:02:12.352Z,40.40
2018-05-09T16:04:41.365Z,41.30
2018-05-09T16:07:09.687Z,41.30
2018-05-09T16:09:37.939Z,41.90
2018-05-09T16:12:06.339Z,41.10
2018-05-09T16:14:34.656Z,41.60
2018-05-09T16:17:04.567Z,42.40
2018-05-09T16:19:33.624Z,41.90
2018-05-09T16:22:01.900Z,41.90
2018-05-09T16:24:30.149Z,42.00
2018-05-09T16:26:58.522Z,41.60
2018-05-09T16:29:26.789Z,42.80
2018-05-09T16:31:55.071Z,43.00
2018-05-09T16:34:24.275Z,43.30
2018-05-09T16:36:52.547Z,43.20
2018-05-09T16:39:21.712Z,43.20
2018-05-09T16:41:50.754Z,42.90
2018-05-09T16:44:19.552Z,42.90
2018-05-09T16:46:47.831Z,43.40
2018-05-09T16:49:16.111Z,43.60
2018-05-09T16:51:45.163Z,43.50
2018-05-09T16:54:13.457Z,43.70
2018-05-09T16:56:41.703Z,44.60
2018-05-09T16:59:11.295Z,45.40
2018-05-09T17:01:40.323Z,45.90
2018-05-09T17:04:08.630Z,45.90
2018-05-09T17:06:36.887Z,45.00
2018-05-09T17:09:05.909Z,45.20
2018-05-09T17:11:34.925Z,46.40
2018-05-09T17:14:03.986Z,45.90
2018-05-09T17:16:32.246Z,45.90
2018-05-09T17:19:00.498Z,45.90
2018-05-09T17:21:40.443Z,46.20
2018-05-09T17:24:10.339Z,46.80
2018-05-09T17:26:39.399Z,45.90
2018-05-09T17:29:07.649Z,45.90
2018-05-09T17:31:35.888Z,46.70
2018-05-09T17:34:04.910Z,46.80
2018-05-09T17:36:33.186Z,46.70
2018-05-09T17:39:01.449Z,45.50
2018-05-09T17:41:29.713Z,45.50
2018-05-09T17:43:58.768Z,45.40
2018-05-09T17:46:27.044Z,45.30
2018-05-09T17:48:55.298Z,46.00
2018-05-09T17:51:23.520Z,46.80
2018-05-09T17:53:52.541Z,48.70
2018-05-09T17:56:20.796Z,48.60
2018-05-09T17:58:49.919Z,52.90
2018-05-09T18:01:18.099Z,52.90
2018-05-09T18:03:46.353Z,54.30
2018-05-09T18:06:14.653Z,55.40
2018-05-09T18:08:42.904Z,56.50
2018-05-09T18:11:11.943Z,57.80
2018-05-09T18:13:40.195Z,57.80
2018-05-09T18:16:08.447Z,58.10
2018-05-09T18:18:37.474Z,59.90
2018-05-09T18:21:05.876Z,59.80
2018-05-09T18:23:34.123Z,60.30
2018-05-09T18:26:02.361Z,61.30
2018-05-09T18:28:31.412Z,62.80
2018-05-09T18:30:59.645Z,62.80
2018-05-09T18:33:27.967Z,63.70
2018-05-09T18:35:56.923Z,64.70
2018-05-09T18:38:25.184Z,64.70
2018-05-09T18:40:54.208Z,65.90
2018-05-09T18:43:22.463Z,65.70
2018-05-09T18:45:50.736Z,67.00
2018-05-09T18:48:18.999Z,68.30
2018-05-09T18:50:48.029Z,68.60
2018-05-09T18:53:16.289Z,68.50
2018-05-09T18:55:44.547Z,69.40
2018-05-09T18:58:13.572Z,71.60
2018-05-09T19:00:41.839Z,71.50
2018-05-09T19:03:10.104Z,72.40
2018-05-09T19:05:38.362Z,74.10
2018-05-09T19:08:07.406Z,76.00
2018-05-09T19:10:35.656Z,75.90
2018-05-09T19:13:03.908Z,76.50
2018-05-09T19:15:32.945Z,78.10
2018-05-09T19:18:01.184Z,77.90
2018-05-09T19:20:30.220Z,79.40
2018-05-09T19:22:58.580Z,79.30
2018-05-09T19:25:26.795Z,79.50
2018-05-09T19:27:55.056Z,80.00
2018-05-09T19:30:24.068Z,81.10
2018-05-09T19:32:52.383Z,81.00
2018-05-09T19:35:20.630Z,81.90
2018-05-09T19:37:50.594Z,82.00
2018-05-09T19:40:18.855Z,82.00
2018-05-09T19:42:47.132Z,82.30
2018-05-09T19:45:15.390Z,83.60
2018-05-09T19:47:44.456Z,84.10
2018-05-09T19:50:12.794Z,84.10
2018-05-09T19:52:41.064Z,84.60
2018-05-09T19:55:09.370Z,85.50
2018-05-09T19:57:37.622Z,87.10
2018-05-09T20:00:05.925Z,86.90
2018-05-09T20:02:34.193Z,87.30
2018-05-09T20:05:02.447Z,87.70
2018-05-09T20:07:30.749Z,88.70
2018-05-09T20:09:58.994Z,89.30
2018-05-09T20:12:27.315Z,90.00
2018-05-09T20:14:55.563Z,90.40
2018-05-09T20:17:23.805Z,90.20
2018-05-09T20:19:52.813Z,90.40
2018-05-09T20:22:21.061Z,90.40
2018-05-09T20:24:50.088Z,90.70
2018-05-09T20:27:18.346Z,90.60
2018-05-09T20:29:46.621Z,90.70
2018-05-09T20:32:27.468Z,91.10
2018-05-09T20:34:55.722Z,91.10
2018-05-09T20:37:23.993Z,91.20
2018-05-09T20:39:52.248Z,91.80
2018-05-09T20:42:20.518Z,92.40
2018-05-09T20:44:48.787Z,92.70
2018-05-09T20:47:17.048Z,92.60
2018-05-09T20:49:46.164Z,92.00
2018-05-09T20:52:14.438Z,92.00
2018-05-09T20:54:42.685Z,92.00
2018-05-09T20:57:11.759Z,91.80
2018-05-09T20:59:39.995Z,91.70
2018-05-09T21:02:08.239Z,91.40
2018-05-09T21:04:37.273Z,91.40
2018-05-09T21:07:05.541Z,91.40
2018-05-09T21:09:33.809Z,91.50
2018-05-09T21:12:08.976Z,91.60
2018-05-09T21:14:37.588Z,91.30
2018-05-09T21:17:05.786Z,92.00
2018-05-09T21:19:34.050Z,92.30
2018-05-09T21:22:03.080Z,92.10
2018-05-09T21:24:31.324Z,92.00
2018-05-09T21:27:00.338Z,92.10
2018-05-09T21:29:28.622Z,92.10
2018-05-09T21:31:56.897Z,92.40
2018-05-09T21:34:25.142Z,93.20
2018-05-09T21:36:54.170Z,94.30
2018-05-09T21:39:22.418Z,94.30
2018-05-09T21:41:51.428Z,94.90
2018-05-09T21:44:19.714Z,94.80
2018-05-09T21:46:47.986Z,95.00
2018-05-09T21:49:16.311Z,94.80
2018-05-09T21:51:44.542Z,94.40
2018-05-09T21:54:12.790Z,94.00
2018-05-09T21:56:41.852Z,94.30
2018-05-09T21:59:10.112Z,94.30
2018-05-09T22:01:38.356Z,94.10
2018-05-09T22:04:07.394Z,95.20
2018-05-09T22:06:35.629Z,95.20
2018-05-09T22:09:03.899Z,95.20
2018-05-09T22:11:32.147Z,95.30
2018-05-09T22:14:01.179Z,95.50
2018-05-09T22:16:29.478Z,95.50
2018-05-09T22:18:57.788Z,96.20
2018-05-09T22:21:25.972Z,96.50
2018-05-09T22:23:55.000Z,96.80
2018-05-09T22:26:23.253Z,96.80
2018-05-09T22:28:51.517Z,97.10
2018-05-09T22:31:20.581Z,97.90
2018-05-09T22:33:48.847Z,97.80
2018-05-09T22:36:17.119Z,98.20
2018-05-09T22:38:45.367Z,98.70
2018-05-09T22:41:13.628Z,99.20
2018-05-09T22:43:41.873Z,99.40
2018-05-09T22:46:10.131Z,99.10
2018-05-09T22:48:38.393Z,99.30
2018-05-09T22:51:06.653Z,99.00
2018-05-09T22:53:34.901Z,98.60
2018-05-09T22:56:03.170Z,98.80
2018-05-09T22:58:32.203Z,99.00
2018-05-09T23:01:00.453Z,99.00
2018-05-09T23:03:29.496Z,99.00
2018-05-09T23:05:57.750Z,99.00
2018-05-09T23:08:26.051Z,99.40
2018-05-09T23:10:54.296Z,99.70
2018-05-09T23:13:22.553Z,99.80
2018-05-09T23:15:50.819Z,99.90
2018-05-09T23:18:19.826Z,99.90
2018-05-09T23:20:48.184Z,99.90
2018-05-09T23:23:17.221Z,99.90
2018-05-09T23:25:45.495Z,99.90
2018-05-09T23:28:13.755Z,99.90
2018-05-09T23:30:42.025Z,99.90
2018-05-09T23:33:10.280Z,99.90
2018-05-09T23:35:39.328Z,99.90
2018-05-09T23:38:07.579Z,99.90
2018-05-09T23:40:35.851Z,99.90
2018-05-09T23:43:04.094Z,99.90
2018-05-09T23:45:33.124Z,99.90
2018-05-09T23:48:01.392Z,99.90
2018-05-09T23:50:29.722Z,99.90
2018-05-09T23:52:57.966Z,99.90
2018-05-09T23:55:26.232Z,99.90
2018-05-09T23:57:54.484Z,99.90
